00AL weather

Epps Airpark
Harvest, Alabama, United States

Public forecast

Using degrees Fahrenheit for public forecast. Weather courtesy of forecast.io.

Closest aviation weather report (METAR) to Epps Airpark

Closest report is Madison County Executive Airport-Tom Sharp Jr Field, 10.5 nm (19.4 km) E. Retrieved 2020/02/22 04:15 UTC (13 minutes ago):

KMDQ 220415Z AUTO 00000KT 10SM CLR M02/M04 A3050 RMK A02 T10191040

Closest aviation forecast (TAF) to Epps Airpark

Closest forecast is Huntsville International Carl T Jones Field, 13.7 nm (25.3 km) S. Retrieved 2020-02-22 00:33 UTC (4 hours ago):

TAF KHSV 212330Z 2200/2224 36005KT P6SM SKC FM220400 VRB03KT P6SM SKC FM221800 21005KT P6SM SKC